createdAt,value
2023-01-28T00:02:30.957Z,9.27
2023-01-28T00:05:39.189Z,10.50
2023-01-28T00:08:47.707Z,10.10
2023-01-28T00:11:57.522Z,10.13
2023-01-28T00:15:07.378Z,10.20
2023-01-28T00:18:15.887Z,11.00
2023-01-28T00:21:24.330Z,10.10
2023-01-28T00:24:32.919Z,11.33
2023-01-28T00:27:43.073Z,10.50
2023-01-28T00:30:51.457Z,11.10
2023-01-28T00:34:00.317Z,10.20
2023-01-28T00:37:08.543Z,10.70
2023-01-28T00:40:17.130Z,10.73
2023-01-28T00:43:26.703Z,9.57
2023-01-28T00:46:34.838Z,10.27
2023-01-28T00:49:42.974Z,10.97
2023-01-28T00:52:51.103Z,10.63
2023-01-28T00:56:00.547Z,12.00
2023-01-28T00:59:14.064Z,11.93
2023-01-28T01:02:22.592Z,10.23
2023-01-28T01:05:31.022Z,11.93
2023-01-28T01:08:42.928Z,10.70
2023-01-28T01:11:51.467Z,10.80
2023-01-28T01:15:01.293Z,10.87
2023-01-28T01:18:09.596Z,10.93
2023-01-28T01:21:22.436Z,11.23
2023-01-28T01:24:33.971Z,11.87
2023-01-28T01:27:42.985Z,10.80
2023-01-28T01:31:00.952Z,12.00
2023-01-28T01:34:10.769Z,11.00
2023-01-28T01:37:19.113Z,12.23
2023-01-28T01:40:29.578Z,11.10
2023-01-28T01:43:52.277Z,11.30
2023-01-28T01:47:02.356Z,11.40
2023-01-28T01:50:24.684Z,9.90
2023-01-28T01:53:33.952Z,11.67
2023-01-28T01:56:48.722Z,11.97
2023-01-28T02:00:05.975Z,11.20
2023-01-28T02:03:30.655Z,10.83
2023-01-28T02:06:40.904Z,10.03
2023-01-28T02:09:49.907Z,10.97
2023-01-28T02:13:00.874Z,11.27
2023-01-28T02:16:11.497Z,10.90
2023-01-28T02:19:27.258Z,10.00
2023-01-28T02:23:15.875Z,10.47
2023-01-28T02:31:41.064Z,10.37
2023-01-28T02:34:59.329Z,11.27
2023-01-28T02:38:13.387Z,9.90
2023-01-28T02:41:30.711Z,11.10
2023-01-28T02:44:38.954Z,11.60
2023-01-28T02:48:00.044Z,10.87
2023-01-28T02:51:29.675Z,11.07
2023-01-28T02:54:47.703Z,10.50
2023-01-28T02:58:10.933Z,10.20
2023-01-28T03:01:29.365Z,11.60
2023-01-28T03:04:48.484Z,10.77
2023-01-28T03:08:00.441Z,10.93
2023-01-28T03:11:26.028Z,9.87
2023-01-28T03:14:54.259Z,9.87
2023-01-28T03:18:26.083Z,9.40
2023-01-28T03:22:02.930Z,8.70
2023-01-28T03:25:35.373Z,9.17
2023-01-28T03:29:08.393Z,8.67
2023-01-28T03:32:35.577Z,9.23
2023-01-28T03:36:03.573Z,9.93
2023-01-28T03:39:15.812Z,9.63
2023-01-28T03:42:25.666Z,9.83
2023-01-28T03:45:46.343Z,9.27
2023-01-28T03:48:54.807Z,9.93
2023-01-28T03:52:03.296Z,9.97
2023-01-28T03:55:14.983Z,10.33
2023-01-28T03:58:27.082Z,8.80
2023-01-28T04:01:35.707Z,9.23
2023-01-28T04:04:44.277Z,9.47
2023-01-28T04:07:55.894Z,8.80
2023-01-28T04:11:26.110Z,8.23
2023-01-28T04:14:34.772Z,8.43
2023-01-28T04:17:50.422Z,9.73
2023-01-28T04:21:16.868Z,8.23
2023-01-28T04:24:26.280Z,8.27
2023-01-28T04:27:36.796Z,8.97
2023-01-28T04:30:56.148Z,10.00
2023-01-28T04:34:25.707Z,8.23
2023-01-28T04:37:56.568Z,8.67
2023-01-28T04:41:23.536Z,8.73
2023-01-28T04:44:33.440Z,8.87
2023-01-28T04:47:58.671Z,9.80
2023-01-28T04:51:27.348Z,9.57
2023-01-28T04:54:51.620Z,9.50
2023-01-28T04:57:59.821Z,11.77
2023-01-28T05:01:10.245Z,11.07
2023-01-28T05:04:18.621Z,10.63
2023-01-28T05:07:27.919Z,9.53
2023-01-28T05:10:36.472Z,10.63
2023-01-28T05:13:45.613Z,9.53
2023-01-28T05:16:57.288Z,10.03
2023-01-28T05:20:07.369Z,9.90
2023-01-28T05:23:15.743Z,11.00
2023-01-28T05:26:31.493Z,9.43
2023-01-28T05:29:39.983Z,10.23
2023-01-28T05:32:50.126Z,11.47
2023-01-28T05:36:03.026Z,10.53
2023-01-28T05:39:11.640Z,10.60
2023-01-28T05:42:22.556Z,10.00
2023-01-28T05:45:35.706Z,11.03
2023-01-28T05:48:52.497Z,12.37
2023-01-28T05:52:33.487Z,10.93
2023-01-28T05:55:42.142Z,11.40
2023-01-28T05:58:50.517Z,11.10
2023-01-28T06:01:59.004Z,11.40
2023-01-28T06:05:10.453Z,11.27
2023-01-28T06:08:18.802Z,12.53
2023-01-28T06:11:27.506Z,10.97
2023-01-28T06:14:39.031Z,11.77
2023-01-28T06:17:59.389Z,11.13
2023-01-28T06:21:11.854Z,12.27
2023-01-28T06:24:20.754Z,11.47
2023-01-28T06:27:29.199Z,11.20
2023-01-28T06:30:37.387Z,11.80
2023-01-28T06:33:46.140Z,12.10
2023-01-28T06:36:56.445Z,10.93
2023-01-28T06:40:05.378Z,11.93
2023-01-28T06:43:13.566Z,10.77
2023-01-28T06:46:22.057Z,10.30
2023-01-28T06:49:30.209Z,12.33
2023-01-28T06:52:41.646Z,12.23
2023-01-28T06:55:50.936Z,11.87
2023-01-28T06:58:59.106Z,10.40
2023-01-28T07:02:07.988Z,10.77
2023-01-28T07:05:16.343Z,10.73
2023-01-28T07:08:26.034Z,10.97
2023-01-28T07:11:34.550Z,10.83
2023-01-28T07:14:42.762Z,10.90
2023-01-28T07:17:50.953Z,10.93
2023-01-28T07:20:59.140Z,11.43
2023-01-28T07:24:09.772Z,10.13
2023-01-28T07:27:17.979Z,12.03
2023-01-28T07:30:26.535Z,12.20
2023-01-28T07:33:34.857Z,11.63
2023-01-28T07:36:43.266Z,11.83
2023-01-28T07:39:52.828Z,10.37
2023-01-28T07:43:01.180Z,11.20
2023-01-28T07:46:17.422Z,10.50
2023-01-28T07:49:25.608Z,11.70
2023-01-28T07:52:38.817Z,11.40
2023-01-28T07:55:48.299Z,10.77
2023-01-28T07:58:56.689Z,11.57
2023-01-28T08:02:04.976Z,11.73
2023-01-28T08:05:13.277Z,11.63
2023-01-28T08:08:21.874Z,10.17
2023-01-28T08:11:31.590Z,10.67
2023-01-28T08:14:40.052Z,10.60
2023-01-28T08:17:48.496Z,11.27
2023-01-28T08:20:57.219Z,10.30
2023-01-28T08:24:06.369Z,9.33
2023-01-28T08:27:15.963Z,10.33
2023-01-28T08:30:24.445Z,10.47
2023-01-28T08:33:33.057Z,9.90
2023-01-28T08:36:41.326Z,10.80
2023-01-28T08:39:50.866Z,11.27
2023-01-28T08:43:00.944Z,11.67
2023-01-28T08:46:09.214Z,11.47
2023-01-28T08:49:17.677Z,11.17
2023-01-28T08:52:25.862Z,10.20
2023-01-28T08:55:35.597Z,10.27
2023-01-28T08:58:46.405Z,10.57
2023-01-28T09:01:56.031Z,11.33
2023-01-28T09:05:05.346Z,10.47
2023-01-28T09:08:16.123Z,9.97
2023-01-28T09:11:24.765Z,10.70
2023-01-28T09:14:34.821Z,11.07
2023-01-28T09:17:43.569Z,9.13
2023-01-28T09:20:52.116Z,8.87
2023-01-28T09:24:00.595Z,11.03
2023-01-28T09:27:09.347Z,10.93
2023-01-28T09:30:19.839Z,10.07
2023-01-28T09:33:28.216Z,10.23
2023-01-28T09:36:37.027Z,10.10
2023-01-28T09:39:45.586Z,9.57
2023-01-28T09:43:19.572Z,9.37
2023-01-28T09:46:35.272Z,9.17
2023-01-28T09:49:51.832Z,10.00
2023-01-28T09:53:07.705Z,9.70
2023-01-28T09:56:26.904Z,8.50
2023-01-28T09:59:37.690Z,9.57
2023-01-28T10:03:23.175Z,9.33
2023-01-28T10:06:49.904Z,9.77
2023-01-28T10:10:07.859Z,9.23
2023-01-28T10:13:31.679Z,9.13
2023-01-28T10:16:48.065Z,10.17
2023-01-28T10:20:04.695Z,8.83
2023-01-28T10:23:21.929Z,9.03
2023-01-28T10:26:37.294Z,8.70
2023-01-28T10:29:49.978Z,8.77
2023-01-28T10:33:05.873Z,8.30
2023-01-28T10:36:18.819Z,7.40
2023-01-28T10:39:29.975Z,9.27
2023-01-28T10:42:40.673Z,7.87
2023-01-28T10:46:00.261Z,8.83
2023-01-28T10:49:18.133Z,8.77
2023-01-28T10:52:27.990Z,8.10
2023-01-28T10:55:49.113Z,8.27
2023-01-28T10:59:02.877Z,6.37
2023-01-28T11:02:32.364Z,7.63
2023-01-28T11:06:08.341Z,7.37
2023-01-28T11:09:26.501Z,6.50
2023-01-28T11:12:34.716Z,6.37
2023-01-28T11:15:49.728Z,6.83
2023-01-28T11:19:06.309Z,6.97
2023-01-28T11:22:30.039Z,6.37
2023-01-28T11:25:39.757Z,6.60
2023-01-28T11:28:48.385Z,6.50
2023-01-28T11:31:57.462Z,5.57
2023-01-28T11:35:07.814Z,5.67
2023-01-28T11:38:23.183Z,5.07
2023-01-28T11:41:36.427Z,5.23
2023-01-28T11:44:45.378Z,5.20
2023-01-28T11:48:15.161Z,6.27
2023-01-28T11:51:47.400Z,5.80
2023-01-28T11:55:19.086Z,5.23
2023-01-28T11:58:42.429Z,6.47
2023-01-28T12:02:03.607Z,6.43
2023-01-28T12:05:41.472Z,6.50
2023-01-28T12:09:07.462Z,7.13
2023-01-28T12:12:47.751Z,7.17
2023-01-28T12:16:37.069Z,7.00
2023-01-28T12:20:09.418Z,6.03
2023-01-28T12:23:46.068Z,7.20
2023-01-28T12:27:12.626Z,6.93
2023-01-28T12:30:44.895Z,8.60
2023-01-28T12:34:24.684Z,7.60
2023-01-28T12:37:50.507Z,8.40
2023-01-28T12:41:08.748Z,7.77
2023-01-28T12:44:27.506Z,7.17
2023-01-28T12:47:40.382Z,7.43
2023-01-28T12:50:58.548Z,7.50
2023-01-28T12:54:21.240Z,8.77
2023-01-28T12:57:32.871Z,7.97
2023-01-28T13:00:51.321Z,7.63
2023-01-28T13:04:08.558Z,8.33
2023-01-28T13:07:24.457Z,8.03
2023-01-28T13:10:41.770Z,8.57
2023-01-28T13:13:50.432Z,8.27
2023-01-28T13:17:11.161Z,8.93
2023-01-28T13:20:32.251Z,9.17
2023-01-28T13:23:45.486Z,8.83
2023-01-28T13:26:56.920Z,8.70
2023-01-28T13:30:25.167Z,8.60
2023-01-28T13:33:37.005Z,7.40
2023-01-28T13:36:48.691Z,8.30
2023-01-28T13:40:09.203Z,8.33
2023-01-28T13:43:38.614Z,7.97
2023-01-28T13:46:47.555Z,7.73
2023-01-28T13:50:01.020Z,8.60
2023-01-28T13:53:36.594Z,8.60
2023-01-28T13:57:21.364Z,8.73
2023-01-28T14:00:41.661Z,8.03
2023-01-28T14:04:27.649Z,7.47
2023-01-28T14:08:10.735Z,8.20
2023-01-28T14:12:12.045Z,8.23
2023-01-28T14:15:59.666Z,8.43
2023-01-28T14:19:14.658Z,7.87
2023-01-28T14:22:23.582Z,8.20
2023-01-28T14:25:54.580Z,8.73
2023-01-28T14:29:34.265Z,8.20
2023-01-28T14:32:49.284Z,8.23
2023-01-28T14:35:58.714Z,7.90
2023-01-28T14:39:12.406Z,8.37
2023-01-28T14:42:25.742Z,8.00
2023-01-28T14:46:04.117Z,7.07
2023-01-28T14:49:33.276Z,6.90
2023-01-28T14:53:17.402Z,7.73
2023-01-28T14:56:43.252Z,12.80
2023-01-28T14:59:55.596Z,10.30
2023-01-28T15:03:27.454Z,9.17
2023-01-28T15:06:37.576Z,8.43
2023-01-28T15:09:46.310Z,8.90
2023-01-28T15:12:59.722Z,10.37
2023-01-28T15:16:09.244Z,11.53
2023-01-28T15:19:27.231Z,7.80
2023-01-28T15:22:36.151Z,6.77
2023-01-28T15:25:45.441Z,7.73
2023-01-28T15:28:56.362Z,8.47
2023-01-28T15:32:06.351Z,8.00
2023-01-28T15:35:16.018Z,7.57
2023-01-28T15:38:27.361Z,7.57
2023-01-28T15:41:42.457Z,7.77
2023-01-28T15:44:52.645Z,7.60
2023-01-28T15:48:08.914Z,8.03
2023-01-28T15:51:25.808Z,8.97
2023-01-28T15:54:39.123Z,8.70
2023-01-28T15:57:47.302Z,7.50
2023-01-28T16:01:20.359Z,7.50
2023-01-28T16:04:31.036Z,8.17
2023-01-28T16:07:47.342Z,7.77
2023-01-28T16:10:57.906Z,8.13
2023-01-28T16:14:06.356Z,8.57
2023-01-28T16:17:20.653Z,6.80
2023-01-28T16:20:31.310Z,7.40
2023-01-28T16:23:41.506Z,7.77
2023-01-28T16:26:58.916Z,7.57
2023-01-28T16:30:08.390Z,8.40
2023-01-28T16:33:21.930Z,8.77
2023-01-28T16:36:30.015Z,8.73
2023-01-28T16:39:39.492Z,9.20
2023-01-28T16:42:48.444Z,8.53
2023-01-28T16:45:56.799Z,8.23
2023-01-28T16:49:05.059Z,9.47
2023-01-28T16:52:13.652Z,9.10
2023-01-28T16:55:24.232Z,9.13
2023-01-28T16:58:32.500Z,9.87
2023-01-28T17:01:40.850Z,10.17
2023-01-28T17:04:49.123Z,9.17
2023-01-28T17:07:59.413Z,9.00
2023-01-28T17:11:08.996Z,9.93
2023-01-28T17:14:17.093Z,13.80
2023-01-28T17:17:25.429Z,11.03
2023-01-28T17:20:37.337Z,9.90
2023-01-28T17:23:45.731Z,9.90
2023-01-28T17:26:55.300Z,9.67
2023-01-28T17:30:03.533Z,10.27
2023-01-28T17:33:11.646Z,11.53
2023-01-28T17:36:19.844Z,9.97
2023-01-28T17:39:28.081Z,9.87
2023-01-28T17:42:37.534Z,9.00
2023-01-28T17:45:45.654Z,9.37
2023-01-28T17:48:54.375Z,9.00
2023-01-28T17:52:02.514Z,10.53
2023-01-28T17:55:12.012Z,10.07
2023-01-28T17:58:21.750Z,10.90
2023-01-28T18:01:30.496Z,9.47
2023-01-28T18:04:40.251Z,10.07
2023-01-28T18:07:50.240Z,11.17
2023-01-28T18:10:58.384Z,9.80
2023-01-28T18:14:07.915Z,9.77
2023-01-28T18:17:16.145Z,9.90
2023-01-28T18:20:24.831Z,9.77
2023-01-28T18:23:34.271Z,10.60
2023-01-28T18:26:42.594Z,10.87
2023-01-28T18:29:52.605Z,9.47
2023-01-28T18:33:00.694Z,10.67
2023-01-28T18:36:10.583Z,8.87
2023-01-28T18:39:20.473Z,7.97
2023-01-28T18:42:28.706Z,7.90
2023-01-28T18:45:41.633Z,8.00
2023-01-28T18:48:49.962Z,8.10
2023-01-28T18:51:59.336Z,7.93
2023-01-28T18:55:09.386Z,8.93
2023-01-28T18:58:17.867Z,9.57
2023-01-28T19:01:28.830Z,9.63
2023-01-28T19:04:37.031Z,9.43
2023-01-28T19:07:45.200Z,9.13
2023-01-28T19:10:57.158Z,8.30
2023-01-28T19:14:06.269Z,9.83
2023-01-28T19:17:16.421Z,9.33
2023-01-28T19:20:24.603Z,9.30
2023-01-28T19:23:48.871Z,9.03
2023-01-28T19:26:57.702Z,9.47
2023-01-28T19:30:08.013Z,10.20
2023-01-28T19:33:17.559Z,10.23
2023-01-28T19:36:27.270Z,10.87
2023-01-28T19:39:35.523Z,10.17
2023-01-28T19:42:43.638Z,9.50
2023-01-28T19:45:58.401Z,10.73
2023-01-28T19:49:10.412Z,11.53
2023-01-28T19:52:18.510Z,10.47
2023-01-28T19:55:26.886Z,13.23
2023-01-28T19:58:35.557Z,15.70
2023-01-28T20:01:43.776Z,11.53
2023-01-28T20:05:00.594Z,10.13
2023-01-28T20:08:09.159Z,9.63
2023-01-28T20:11:17.943Z,10.03
2023-01-28T20:14:27.926Z,9.70
2023-01-28T20:17:36.056Z,10.00
2023-01-28T20:20:53.813Z,10.73
2023-01-28T20:24:04.481Z,10.33
2023-01-28T20:27:12.661Z,10.57
2023-01-28T20:30:20.957Z,11.23
2023-01-28T20:33:29.098Z,11.57
2023-01-28T20:36:38.602Z,10.20
2023-01-28T20:39:47.072Z,12.03
2023-01-28T20:42:55.138Z,11.53
2023-01-28T20:46:05.895Z,11.47
2023-01-28T20:49:14.002Z,10.23
2023-01-28T20:52:23.433Z,9.67
2023-01-28T20:55:32.575Z,10.27
2023-01-28T20:58:41.354Z,10.80
2023-01-28T21:01:49.537Z,13.37
2023-01-28T21:04:57.679Z,13.00
2023-01-28T21:08:07.753Z,11.53
2023-01-28T21:11:15.892Z,12.10
2023-01-28T21:14:24.455Z,12.17
2023-01-28T21:17:33.199Z,10.80
2023-01-28T21:20:41.304Z,10.87
2023-01-28T21:23:51.005Z,12.47
2023-01-28T21:26:59.101Z,11.70
2023-01-28T21:30:09.249Z,10.30
2023-01-28T21:33:17.426Z,8.47
2023-01-28T21:36:27.078Z,9.17
2023-01-28T21:39:36.632Z,8.57
2023-01-28T21:42:45.023Z,10.63
2023-01-28T21:45:56.749Z,10.77
2023-01-28T21:49:06.458Z,9.00
2023-01-28T21:52:14.754Z,8.13
2023-01-28T21:55:24.460Z,9.20
2023-01-28T21:58:50.795Z,9.30
2023-01-28T22:02:01.231Z,10.33
2023-01-28T22:05:09.789Z,10.40
2023-01-28T22:08:18.051Z,9.77
2023-01-28T22:11:28.050Z,9.13
2023-01-28T22:14:37.285Z,9.97
2023-01-28T22:17:45.468Z,9.70
2023-01-28T22:21:01.740Z,8.47
2023-01-28T22:24:13.585Z,7.87
2023-01-28T22:27:23.116Z,9.90
2023-01-28T22:30:31.410Z,8.90
2023-01-28T22:33:40.515Z,9.77
2023-01-28T22:36:49.215Z,8.93
2023-01-28T22:39:57.380Z,9.53
2023-01-28T22:43:06.943Z,9.67
2023-01-28T22:46:16.218Z,9.73
2023-01-28T22:49:26.660Z,8.50
2023-01-28T22:52:34.825Z,9.40
2023-01-28T23:00:44.699Z,9.20
2023-01-28T23:07:50.479Z,9.17
2023-01-28T23:11:39.161Z,9.30
2023-01-28T23:28:33.813Z,11.60
2023-01-28T23:32:32.481Z,10.10
2023-01-28T23:36:43.539Z,11.37
2023-01-28T23:40:58.702Z,11.00
2023-01-28T23:44:44.027Z,9.83
2023-01-28T23:48:45.661Z,10.43
2023-01-28T23:52:48.600Z,11.40
2023-01-28T23:56:35.598Z,11.70
